Time;durP1;ratioP1;P1;durP2;ratioP2;P2;SDS_P1;SDS_P2;PMS_P1;PMS_P2;Temp;Humidity;BMP_temperature;BMP_pressure;BME280_temperature;BME280_humidity;BME280_pressure;Samples;Min_cycle;Max_cycle;Signal;HPM_P1;HPM_P2
2021/05/31 00:01:53;;;;;;;27.23;15.35;;;;;;;;;;5021833;28;20213;-68
2021/05/31 00:04:18;;;;;;;23.55;14.73;;;;;;;;;;5028426;28;20190;-68
2021/05/31 00:07:05;;;;;;;25.02;15.23;;;;;;;;;;5023336;28;20212;-67
2021/05/31 00:09:32;;;;;;;26.75;14.48;;;;;;;;;;5027668;28;22462;-68
2021/05/31 00:11:58;;;;;;;24.98;14.55;;;;;;;;;;5022836;28;20200;-68
2021/05/31 00:14:25;;;;;;;20.33;15.05;;;;;;;;;;5027292;28;20950;-67
2021/05/31 00:16:50;;;;;;;23.98;14.43;;;;;;;;;;5019967;28;20199;-68
2021/05/31 00:19:19;;;;;;;22.77;14.40;;;;;;;;;;5031184;28;20320;-68
2021/05/31 00:21:44;;;;;;;24.17;15.48;;;;;;;;;;5016926;28;20632;-68
2021/05/31 00:24:09;;;;;;;28.08;15.25;;;;;;;;;;5027195;28;20190;-68
2021/05/31 00:26:35;;;;;;;23.73;15.20;;;;;;;;;;5021090;28;20185;-68
2021/05/31 00:29:00;;;;;;;25.48;15.65;;;;;;;;;;5031695;28;20194;-68
2021/05/31 00:31:26;;;;;;;28.65;16.38;;;;;;;;;;5031224;28;20232;-68
2021/05/31 00:33:51;;;;;;;25.20;15.77;;;;;;;;;;5018606;28;20308;-68
2021/05/31 00:36:17;;;;;;;25.55;15.57;;;;;;;;;;5028323;28;20664;-68
2021/05/31 00:38:42;;;;;;;23.23;14.98;;;;;;;;;;5024047;28;20189;-68
2021/05/31 00:41:08;;;;;;;32.13;17.77;;;;;;;;;;5028482;28;20276;-68
2021/05/31 00:43:34;;;;;;;22.98;16.10;;;;;;;;;;5019268;28;20273;-68
2021/05/31 00:46:01;;;;;;;28.52;17.38;;;;;;;;;;5030602;28;20301;-68
2021/05/31 00:48:27;;;;;;;29.30;18.02;;;;;;;;;;5018731;28;20228;-68
2021/05/31 00:50:53;;;;;;;27.73;17.35;;;;;;;;;;5027895;28;20231;-68
2021/05/31 00:53:19;;;;;;;27.85;16.85;;;;;;;;;;5018068;28;20549;-68
2021/05/31 00:55:44;;;;;;;32.40;17.63;;;;;;;;;;5026537;28;20223;-68
2021/05/31 00:58:10;;;;;;;28.65;18.02;;;;;;;;;;5017619;28;20572;-68
2021/05/31 01:00:36;;;;;;;30.67;16.77;;;;;;;;;;5029221;28;20194;-68
2021/05/31 01:03:02;;;;;;;32.03;18.23;;;;;;;;;;5028980;28;20185;-68
2021/05/31 01:05:27;;;;;;;27.38;18.30;;;;;;;;;;5021524;28;20206;-68
2021/05/31 01:07:59;;;;;;;27.63;16.80;;;;;;;;;;5029652;28;20675;-68
2021/05/31 01:10:49;;;;;;;30.55;17.65;;;;;;;;;;5021053;28;20196;-68
2021/05/31 01:13:37;;;;;;;31.75;18.40;;;;;;;;;;5028809;28;20574;-68
2021/05/31 01:16:07;;;;;;;29.30;19.23;;;;;;;;;;5019102;28;20186;-68
2021/05/31 01:18:42;;;;;;;36.53;19.75;;;;;;;;;;5027724;28;20731;-68
2021/05/31 01:21:29;;;;;;;29.63;19.13;;;;;;;;;;5017956;28;20244;-68
2021/05/31 01:24:31;;;;;;;30.67;18.75;;;;;;;;;;5030368;28;20245;-68
2021/05/31 01:27:16;;;;;;;32.33;18.42;;;;;;;;;;5031795;28;20225;-68
2021/05/31 01:29:56;;;;;;;38.08;19.95;;;;;;;;;;5018406;28;20539;-68
2021/05/31 01:32:25;;;;;;;34.03;19.02;;;;;;;;;;5025672;28;20214;-68
2021/05/31 01:34:52;;;;;;;34.55;20.27;;;;;;;;;;5027489;28;20197;-68
2021/05/31 01:37:21;;;;;;;32.55;19.42;;;;;;;;;;5022219;28;20305;-68
2021/05/31 01:39:50;;;;;;;34.30;18.55;;;;;;;;;;5027753;28;20192;-68
2021/05/31 01:42:17;;;;;;;34.00;19.30;;;;;;;;;;5021486;28;20203;-68
2021/05/31 01:44:44;;;;;;;32.65;18.15;;;;;;;;;;5027250;28;20201;-68
2021/05/31 01:47:10;;;;;;;30.85;18.70;;;;;;;;;;5020792;28;20224;-68
2021/05/31 01:49:38;;;;;;;34.10;19.83;;;;;;;;;;5027945;28;20279;-69
2021/05/31 01:52:07;;;;;;;39.78;21.40;;;;;;;;;;5017482;28;20900;-68
2021/05/31 01:54:33;;;;;;;39.33;20.67;;;;;;;;;;5030210;28;20212;-68
2021/05/31 01:57:00;;;;;;;36.20;19.48;;;;;;;;;;5020890;28;20262;-68
2021/05/31 01:59:26;;;;;;;29.23;19.75;;;;;;;;;;5024026;28;20190;-68
2021/05/31 02:01:54;;;;;;;37.70;22.20;;;;;;;;;;5018460;28;20214;-68
2021/05/31 02:04:20;;;;;;;37.30;22.20;;;;;;;;;;5028829;28;20194;-68
2021/05/31 02:06:48;;;;;;;35.63;20.50;;;;;;;;;;5017394;28;20273;-68
2021/05/31 02:09:14;;;;;;;33.67;19.42;;;;;;;;;;5029524;28;20597;-68
2021/05/31 02:12:04;;;;;;;33.83;19.77;;;;;;;;;;5028791;28;20273;-69
2021/05/31 02:14:58;;;;;;;30.08;20.70;;;;;;;;;;5028713;28;20700;-68
2021/05/31 02:17:43;;;;;;;35.25;21.58;;;;;;;;;;5018649;28;20260;-68
2021/05/31 02:20:15;;;;;;;39.80;22.05;;;;;;;;;;5025674;28;20208;-68
2021/05/31 02:22:54;;;;;;;33.88;19.80;;;;;;;;;;5021685;28;20703;-68
2021/05/31 02:25:20;;;;;;;33.67;21.95;;;;;;;;;;5022067;28;20212;-69
2021/05/31 02:27:47;;;;;;;37.22;22.48;;;;;;;;;;5022300;28;20206;-68
2021/05/31 02:30:15;;;;;;;37.15;21.85;;;;;;;;;;5023516;28;20588;-68
2021/05/31 02:32:58;;;;;;;41.13;22.00;;;;;;;;;;5028579;28;20208;-68
2021/05/31 02:35:24;;;;;;;37.22;21.95;;;;;;;;;;5027888;28;20617;-68
2021/05/31 02:37:50;;;;;;;36.20;21.85;;;;;;;;;;5033967;28;20189;-68
2021/05/31 02:40:16;;;;;;;39.15;22.45;;;;;;;;;;5021484;28;20750;-68
2021/05/31 02:42:45;;;;;;;39.88;21.85;;;;;;;;;;5031692;28;20712;-68
2021/05/31 02:45:12;;;;;;;37.92;22.60;;;;;;;;;;5020348;28;20186;-68
2021/05/31 02:47:38;;;;;;;40.50;22.80;;;;;;;;;;5035865;28;20593;-68
2021/05/31 02:50:04;;;;;;;40.97;22.77;;;;;;;;;;5023858;28;20189;-68
2021/05/31 02:52:30;;;;;;;32.97;21.02;;;;;;;;;;5033229;28;20700;-68
2021/05/31 02:54:55;;;;;;;38.22;22.42;;;;;;;;;;5024185;28;20193;-68
2021/05/31 02:57:21;;;;;;;38.50;23.13;;;;;;;;;;5033516;28;20189;-68
2021/05/31 02:59:46;;;;;;;43.92;24.48;;;;;;;;;;5022678;28;20205;-68
2021/05/31 03:02:12;;;;;;;44.10;22.73;;;;;;;;;;5031854;28;20213;-68
2021/05/31 03:04:37;;;;;;;34.35;20.63;;;;;;;;;;5034001;28;20198;-69
2021/05/31 03:07:03;;;;;;;38.05;20.90;;;;;;;;;;5024112;28;20197;-68
2021/05/31 03:09:28;;;;;;;39.78;21.27;;;;;;;;;;5030960;28;20193;-68
2021/05/31 03:11:54;;;;;;;33.10;20.13;;;;;;;;;;5023861;28;20185;-68
2021/05/31 03:14:19;;;;;;;41.70;22.23;;;;;;;;;;5028880;28;20209;-71
2021/05/31 03:16:44;;;;;;;33.30;21.67;;;;;;;;;;5024570;28;20190;-68
2021/05/31 03:19:10;;;;;;;35.10;21.90;;;;;;;;;;5029098;28;20196;-68
2021/05/31 03:21:35;;;;;;;39.53;21.80;;;;;;;;;;5022788;28;20193;-68
2021/05/31 03:24:00;;;;;;;36.95;21.33;;;;;;;;;;5031529;28;20556;-68
2021/05/31 03:26:25;;;;;;;43.78;23.35;;;;;;;;;;5022804;28;20324;-68
2021/05/31 03:28:51;;;;;;;35.55;20.67;;;;;;;;;;5032616;28;20206;-68
2021/05/31 03:31:17;;;;;;;41.97;22.25;;;;;;;;;;5022030;28;22724;-68
2021/05/31 03:33:42;;;;;;;36.50;22.50;;;;;;;;;;5028407;28;20660;-68
2021/05/31 03:36:07;;;;;;;43.80;24.52;;;;;;;;;;5030473;28;20206;-68
2021/05/31 03:38:32;;;;;;;40.45;23.60;;;;;;;;;;5018429;28;21598;-68
2021/05/31 03:40:58;;;;;;;34.70;22.75;;;;;;;;;;5028056;28;20197;-68
2021/05/31 03:43:23;;;;;;;50.63;25.30;;;;;;;;;;5017266;28;20186;-68
2021/05/31 03:45:49;;;;;;;49.10;25.60;;;;;;;;;;5032610;28;20559;-68
2021/05/31 03:48:14;;;;;;;51.47;27.73;;;;;;;;;;5022671;28;20205;-68
2021/05/31 03:50:40;;;;;;;55.50;27.15;;;;;;;;;;5031037;28;20186;-68
2021/05/31 03:53:05;;;;;;;64.28;31.80;;;;;;;;;;5023122;28;20541;-68
2021/05/31 03:55:31;;;;;;;58.55;31.20;;;;;;;;;;5033537;28;20193;-68
2021/05/31 03:57:56;;;;;;;64.90;33.80;;;;;;;;;;5023742;28;20450;-68
2021/05/31 04:00:23;;;;;;;73.00;33.75;;;;;;;;;;5030115;28;20562;-68
2021/05/31 04:02:48;;;;;;;78.25;33.30;;;;;;;;;;5022324;28;20221;-68
2021/05/31 04:05:15;;;;;;;70.22;34.80;;;;;;;;;;5028882;28;20178;-68
2021/05/31 04:13:09;;;;;;;111.20;35.95;;;;;;;;;;5025628;28;20204;-68
2021/05/31 04:15:35;;;;;;;92.50;37.13;;;;;;;;;;5015272;28;20653;-68
2021/05/31 04:18:00;;;;;;;96.88;37.58;;;;;;;;;;5029565;28;20185;-68
2021/05/31 04:20:26;;;;;;;112.75;37.20;;;;;;;;;;5021139;28;20238;-67
2021/05/31 04:22:51;;;;;;;98.65;35.60;;;;;;;;;;5029809;28;20185;-68
2021/05/31 04:25:17;;;;;;;148.63;35.47;;;;;;;;;;5020610;28;20877;-68
2021/05/31 04:27:43;;;;;;;119.85;38.58;;;;;;;;;;5027728;28;20220;-68
2021/05/31 04:30:09;;;;;;;119.95;37.10;;;;;;;;;;5022104;28;20625;-68
2021/05/31 04:32:34;;;;;;;112.03;37.17;;;;;;;;;;5029368;28;20878;-68
2021/05/31 04:35:00;;;;;;;83.30;35.65;;;;;;;;;;5020357;28;20204;-68
2021/05/31 04:37:26;;;;;;;145.70;35.75;;;;;;;;;;5029916;28;20629;-68
2021/05/31 04:39:52;;;;;;;142.88;37.90;;;;;;;;;;5019380;28;20628;-69
2021/05/31 04:42:17;;;;;;;173.88;37.15;;;;;;;;;;5028100;28;20190;-69
2021/05/31 04:44:43;;;;;;;105.72;36.25;;;;;;;;;;5026870;28;20186;-68
2021/05/31 04:47:08;;;;;;;132.27;37.13;;;;;;;;;;5015288;28;20209;-68
2021/05/31 04:49:34;;;;;;;77.97;35.65;;;;;;;;;;5026808;28;20211;-68
2021/05/31 04:51:59;;;;;;;106.15;35.63;;;;;;;;;;5017739;28;20798;-69
2021/05/31 04:54:25;;;;;;;68.85;35.53;;;;;;;;;;5028816;28;20194;-68
2021/05/31 04:56:50;;;;;;;113.78;36.20;;;;;;;;;;5021762;28;20201;-69
2021/05/31 04:59:15;;;;;;;161.13;38.13;;;;;;;;;;5028152;28;20197;-68
2021/05/31 05:01:41;;;;;;;112.10;35.78;;;;;;;;;;5020238;28;20201;-68
2021/05/31 05:04:07;;;;;;;78.10;36.13;;;;;;;;;;5025552;28;20680;-68
2021/05/31 05:06:33;;;;;;;84.82;34.40;;;;;;;;;;5021937;28;20197;-69
2021/05/31 05:08:59;;;;;;;89.53;35.67;;;;;;;;;;5028830;28;20255;-68
2021/05/31 05:11:24;;;;;;;71.65;35.05;;;;;;;;;;5019268;28;20206;-68
2021/05/31 05:13:52;;;;;;;99.63;33.13;;;;;;;;;;5025599;28;20326;-69
2021/05/31 05:16:18;;;;;;;91.80;32.70;;;;;;;;;;5027635;28;20209;-69
2021/05/31 05:18:48;;;;;;;59.92;31.67;;;;;;;;;;5019696;28;20679;-68
2021/05/31 05:21:16;;;;;;;114.80;30.52;;;;;;;;;;5030245;28;20563;-68
2021/05/31 05:23:46;;;;;;;99.93;33.28;;;;;;;;;;5017979;28;20188;-68
2021/05/31 05:26:12;;;;;;;99.65;32.13;;;;;;;;;;5024975;28;20182;-70
2021/05/31 05:28:38;;;;;;;73.45;32.67;;;;;;;;;;5021494;28;20214;-69
2021/05/31 05:31:07;;;;;;;77.40;30.88;;;;;;;;;;5028542;28;20185;-69
2021/05/31 05:33:35;;;;;;;60.35;30.25;;;;;;;;;;5020292;28;20212;-69
2021/05/31 05:36:14;;;;;;;73.28;30.17;;;;;;;;;;5026961;28;20204;-68
2021/05/31 05:46:44;;;;;;;95.22;29.25;;;;;;;;;;5029783;28;20196;-69
2021/05/31 05:49:10;;;;;;;57.80;28.10;;;;;;;;;;5023493;28;20197;-69
2021/05/31 05:51:35;;;;;;;93.60;30.20;;;;;;;;;;5029221;28;20225;-69
2021/05/31 05:54:02;;;;;;;57.97;28.40;;;;;;;;;;5020900;28;20673;-68
2021/05/31 05:56:27;;;;;;;66.70;29.85;;;;;;;;;;5027387;28;20200;-69
2021/05/31 05:58:54;;;;;;;51.00;28.52;;;;;;;;;;4322978;28;10000892;-69
2021/05/31 06:01:20;;;;;;;47.35;28.42;;;;;;;;;;5021703;28;20212;-69
2021/05/31 06:03:50;;;;;;;48.45;27.15;;;;;;;;;;5025969;28;20548;-68
2021/05/31 06:06:16;;;;;;;49.95;27.38;;;;;;;;;;5015102;28;20655;-69
2021/05/31 06:08:41;;;;;;;48.95;27.75;;;;;;;;;;5028217;28;20214;-69
2021/05/31 06:11:06;;;;;;;50.33;28.63;;;;;;;;;;5018582;28;20229;-69
2021/05/31 06:13:32;;;;;;;45.53;27.23;;;;;;;;;;5033685;28;20284;-69
2021/05/31 06:15:59;;;;;;;42.20;27.13;;;;;;;;;;5021949;28;20194;-69
2021/05/31 06:18:25;;;;;;;42.42;27.23;;;;;;;;;;5031073;28;20182;-69
2021/05/31 06:20:50;;;;;;;45.35;27.88;;;;;;;;;;5021814;28;20249;-69
2021/05/31 06:23:15;;;;;;;45.65;28.33;;;;;;;;;;5031188;28;20200;-69
2021/05/31 06:25:41;;;;;;;42.03;25.83;;;;;;;;;;5021640;28;20198;-69
2021/05/31 06:28:07;;;;;;;44.08;26.38;;;;;;;;;;5029373;28;20259;-69
2021/05/31 06:30:34;;;;;;;43.55;26.65;;;;;;;;;;5023569;28;20196;-69
2021/05/31 06:33:00;;;;;;;42.38;25.98;;;;;;;;;;5030014;28;20200;-69
2021/05/31 06:35:25;;;;;;;39.95;25.70;;;;;;;;;;5029345;28;20304;-69
2021/05/31 06:37:52;;;;;;;37.28;24.50;;;;;;;;;;5023632;28;20186;-69
2021/05/31 06:40:18;;;;;;;35.25;23.73;;;;;;;;;;5030978;28;20197;-69
2021/05/31 06:42:45;;;;;;;32.72;22.35;;;;;;;;;;5022963;28;20252;-69
2021/05/31 06:45:21;;;;;;;31.15;22.92;;;;;;;;;;5029584;28;20200;-69
2021/05/31 06:47:47;;;;;;;33.55;23.55;;;;;;;;;;5019747;28;20209;-69
2021/05/31 06:50:13;;;;;;;35.22;24.27;;;;;;;;;;5029168;28;20661;-69
2021/05/31 06:52:38;;;;;;;33.15;22.70;;;;;;;;;;5019107;28;20241;-69
2021/05/31 06:55:06;;;;;;;33.63;23.90;;;;;;;;;;5029975;28;20662;-69
2021/05/31 06:57:32;;;;;;;32.33;21.85;;;;;;;;;;5021060;28;20203;-69
2021/05/31 06:59:57;;;;;;;33.42;23.52;;;;;;;;;;5033018;28;20260;-69
2021/05/31 07:02:22;;;;;;;30.73;21.83;;;;;;;;;;5024255;28;20279;-69
2021/05/31 07:04:48;;;;;;;32.00;22.20;;;;;;;;;;5031951;28;20570;-69
2021/05/31 07:07:19;;;;;;;33.45;22.63;;;;;;;;;;5028516;28;20199;-69
2021/05/31 07:09:44;;;;;;;32.80;22.60;;;;;;;;;;5021740;28;20193;-68
2021/05/31 07:12:09;;;;;;;32.83;21.85;;;;;;;;;;5027845;28;20202;-68
2021/05/31 07:14:37;;;;;;;27.13;20.45;;;;;;;;;;5020594;28;20222;-69
2021/05/31 07:17:03;;;;;;;27.25;20.35;;;;;;;;;;5026872;28;20680;-69
2021/05/31 07:19:28;;;;;;;26.52;20.00;;;;;;;;;;5020098;28;20194;-69
2021/05/31 07:21:54;;;;;;;27.00;20.13;;;;;;;;;;5029272;28;20236;-69
2021/05/31 07:24:20;;;;;;;26.70;20.20;;;;;;;;;;5020908;28;20244;-69
2021/05/31 07:26:45;;;;;;;26.55;20.35;;;;;;;;;;5030053;28;20182;-69
2021/05/31 07:29:10;;;;;;;30.30;20.85;;;;;;;;;;5022237;28;20697;-69
2021/05/31 07:31:36;;;;;;;27.65;19.23;;;;;;;;;;5029147;28;20219;-70
2021/05/31 07:34:02;;;;;;;27.73;20.10;;;;;;;;;;5021583;28;20196;-69
2021/05/31 07:36:27;;;;;;;28.80;20.73;;;;;;;;;;5030013;28;20194;-69
2021/05/31 07:38:53;;;;;;;26.55;20.00;;;;;;;;;;5032374;28;21449;-67
2021/05/31 07:41:19;;;;;;;27.02;20.33;;;;;;;;;;5023594;28;20193;-69
2021/05/31 07:43:45;;;;;;;28.15;21.23;;;;;;;;;;5029475;28;20217;-69
2021/05/31 07:46:12;;;;;;;28.02;21.25;;;;;;;;;;5022381;28;20288;-69
2021/05/31 07:48:39;;;;;;;27.98;20.40;;;;;;;;;;5030695;28;20260;-69
2021/05/31 07:51:15;;;;;;;26.58;20.33;;;;;;;;;;5024057;28;20303;-69
2021/05/31 07:53:43;;;;;;;24.92;19.23;;;;;;;;;;5029971;28;20196;-68
2021/05/31 07:56:08;;;;;;;28.63;20.20;;;;;;;;;;5022078;28;20193;-69
2021/05/31 07:58:34;;;;;;;25.95;19.88;;;;;;;;;;5031563;28;20533;-69
2021/05/31 08:01:00;;;;;;;25.13;19.55;;;;;;;;;;5020273;28;20213;-67
2021/05/31 08:03:25;;;;;;;28.38;19.50;;;;;;;;;;5030267;28;20182;-67
2021/05/31 08:05:50;;;;;;;25.15;19.98;;;;;;;;;;5022880;28;20209;-67
2021/05/31 08:08:16;;;;;;;26.10;19.77;;;;;;;;;;5029368;28;20210;-67
2021/05/31 08:10:42;;;;;;;26.67;20.38;;;;;;;;;;5028201;28;20876;-68
2021/05/31 08:13:07;;;;;;;30.73;21.73;;;;;;;;;;5020662;28;20563;-68
2021/05/31 08:15:33;;;;;;;27.70;20.83;;;;;;;;;;5029172;28;20193;-68
2021/05/31 08:17:58;;;;;;;27.80;21.25;;;;;;;;;;5024330;28;20227;-68
2021/05/31 08:20:23;;;;;;;26.02;20.42;;;;;;;;;;5034604;28;20212;-67
2021/05/31 08:22:49;;;;;;;23.00;18.15;;;;;;;;;;5025047;28;20562;-68
2021/05/31 08:25:15;;;;;;;26.52;18.63;;;;;;;;;;5030985;28;20556;-68
2021/05/31 08:27:41;;;;;;;24.85;18.92;;;;;;;;;;5022659;28;20235;-68
2021/05/31 08:30:07;;;;;;;24.13;18.90;;;;;;;;;;5028598;28;20293;-68
2021/05/31 08:32:33;;;;;;;24.42;18.42;;;;;;;;;;5021087;28;20279;-68
2021/05/31 08:34:58;;;;;;;22.25;17.63;;;;;;;;;;5025974;28;20668;-68
2021/05/31 08:37:23;;;;;;;23.67;18.55;;;;;;;;;;5024762;28;20224;-67
2021/05/31 08:39:53;;;;;;;22.02;18.10;;;;;;;;;;5028684;28;20178;-70
2021/05/31 08:42:18;;;;;;;22.85;18.17;;;;;;;;;;5029352;28;20210;-68
2021/05/31 08:44:44;;;;;;;22.92;18.05;;;;;;;;;;5020663;28;20201;-67
2021/05/31 08:47:10;;;;;;;22.45;18.08;;;;;;;;;;5029889;28;20194;-67
2021/05/31 08:49:35;;;;;;;23.45;18.08;;;;;;;;;;5023051;28;20247;-67
2021/05/31 08:52:01;;;;;;;23.98;18.13;;;;;;;;;;5026950;28;20240;-68
2021/05/31 08:54:26;;;;;;;24.95;18.27;;;;;;;;;;5021231;28;20685;-68
2021/05/31 08:56:52;;;;;;;24.27;19.13;;;;;;;;;;5029450;28;20189;-68
2021/05/31 08:59:17;;;;;;;23.85;17.92;;;;;;;;;;5021372;28;20661;-68
2021/05/31 09:01:43;;;;;;;22.80;18.00;;;;;;;;;;5027928;28;20964;-68
2021/05/31 09:04:14;;;;;;;24.10;18.85;;;;;;;;;;5023286;28;20196;-68
2021/05/31 09:06:40;;;;;;;25.67;19.60;;;;;;;;;;5030677;28;20208;-68
2021/05/31 09:09:05;;;;;;;26.52;19.00;;;;;;;;;;5020959;28;20233;-68
2021/05/31 09:11:30;;;;;;;23.35;18.08;;;;;;;;;;5027856;28;21485;-67
2021/05/31 09:13:57;;;;;;;27.20;18.98;;;;;;;;;;5030563;28;20221;-67
2021/05/31 09:16:28;;;;;;;24.25;18.40;;;;;;;;;;5018748;28;20617;-67
2021/05/31 09:18:56;;;;;;;26.50;19.73;;;;;;;;;;5029350;28;20181;-67
2021/05/31 09:21:31;;;;;;;26.02;19.40;;;;;;;;;;5022086;28;20280;-67
2021/05/31 09:24:03;;;;;;;27.58;20.50;;;;;;;;;;5029259;28;20617;-67
2021/05/31 09:26:29;;;;;;;26.75;19.98;;;;;;;;;;5021266;28;20269;-67
2021/05/31 09:29:00;;;;;;;25.17;20.83;;;;;;;;;;5028043;28;20256;-67
2021/05/31 09:31:27;;;;;;;26.80;20.50;;;;;;;;;;5022702;28;20186;-67
2021/05/31 09:34:05;;;;;;;27.17;21.20;;;;;;;;;;5028383;28;20174;-67
2021/05/31 09:36:32;;;;;;;26.17;20.55;;;;;;;;;;5020285;28;20197;-67
2021/05/31 09:38:59;;;;;;;28.02;19.85;;;;;;;;;;5028396;28;20774;-68
2021/05/31 09:41:34;;;;;;;27.95;20.08;;;;;;;;;;5020313;28;20260;-67
2021/05/31 09:44:05;;;;;;;28.63;20.58;;;;;;;;;;5030931;28;20185;-67
2021/05/31 09:46:36;;;;;;;26.65;21.20;;;;;;;;;;5025086;28;20236;-67
2021/05/31 09:49:10;;;;;;;26.17;20.42;;;;;;;;;;5035262;28;20219;-67
2021/05/31 09:51:46;;;;;;;26.65;20.90;;;;;;;;;;5025714;28;20234;-68
2021/05/31 09:54:11;;;;;;;26.10;20.38;;;;;;;;;;5033104;28;20180;-67
2021/05/31 09:56:37;;;;;;;26.70;21.02;;;;;;;;;;5023735;28;20660;-67
2021/05/31 09:59:04;;;;;;;27.77;20.90;;;;;;;;;;5033138;28;20672;-68
2021/05/31 10:01:35;;;;;;;28.35;21.33;;;;;;;;;;5032497;28;20295;-67
2021/05/31 10:04:20;;;;;;;25.17;19.13;;;;;;;;;;5024388;28;20198;-67
2021/05/31 10:06:53;;;;;;;23.98;19.13;;;;;;;;;;5038848;28;20209;-67
2021/05/31 10:09:19;;;;;;;26.17;19.70;;;;;;;;;;5028029;28;20213;-67
2021/05/31 10:11:45;;;;;;;24.15;18.50;;;;;;;;;;5036963;28;20614;-67
2021/05/31 10:14:14;;;;;;;23.30;19.00;;;;;;;;;;5022542;28;20198;-68
2021/05/31 10:16:41;;;;;;;31.58;20.73;;;;;;;;;;5035435;28;20209;-67
2021/05/31 10:19:07;;;;;;;26.55;19.50;;;;;;;;;;5025331;28;20653;-67
2021/05/31 10:21:32;;;;;;;26.30;19.08;;;;;;;;;;5036658;28;20182;-67
2021/05/31 10:23:58;;;;;;;24.05;18.65;;;;;;;;;;5022932;28;20243;-67
2021/05/31 10:26:27;;;;;;;24.10;17.42;;;;;;;;;;5030352;28;20210;-68
2021/05/31 10:28:53;;;;;;;25.50;19.00;;;;;;;;;;5025686;28;20277;-67
2021/05/31 10:31:18;;;;;;;24.60;17.83;;;;;;;;;;5032876;28;20212;-67
2021/05/31 10:33:44;;;;;;;23.17;17.77;;;;;;;;;;5024094;28;20200;-67
2021/05/31 10:36:19;;;;;;;22.85;18.23;;;;;;;;;;5031590;28;20193;-68
2021/05/31 10:38:50;;;;;;;19.90;14.52;;;;;;;;;;5026217;28;20176;-68
2021/05/31 10:41:19;;;;;;;22.10;15.52;;;;;;;;;;5032272;28;20190;-68
2021/05/31 10:43:50;;;;;;;22.35;16.15;;;;;;;;;;5033191;28;20244;-68
2021/05/31 10:46:21;;;;;;;20.58;15.25;;;;;;;;;;5027287;28;20185;-68
2021/05/31 10:48:51;;;;;;;20.17;15.35;;;;;;;;;;5029879;28;20669;-68
2021/05/31 10:51:20;;;;;;;20.52;15.25;;;;;;;;;;5021397;28;20600;-68
2021/05/31 10:53:46;;;;;;;20.90;15.50;;;;;;;;;;5028948;28;20616;-68
2021/05/31 10:56:17;;;;;;;23.05;16.88;;;;;;;;;;5020046;28;20200;-68
2021/05/31 10:58:54;;;;;;;25.73;17.95;;;;;;;;;;5033214;28;20633;-68
2021/05/31 11:01:26;;;;;;;22.52;16.25;;;;;;;;;;5023210;28;20197;-67
2021/05/31 11:04:03;;;;;;;24.80;17.52;;;;;;;;;;5031282;28;20256;-67
2021/05/31 11:06:39;;;;;;;23.95;17.27;;;;;;;;;;5021063;28;20218;-68
2021/05/31 11:09:16;;;;;;;27.67;18.77;;;;;;;;;;5032049;28;20220;-69
2021/05/31 11:11:50;;;;;;;29.08;17.92;;;;;;;;;;5023801;28;20208;-67
2021/05/31 11:14:28;;;;;;;23.98;17.90;;;;;;;;;;5032313;28;20186;-68
2021/05/31 11:17:03;;;;;;;22.60;16.98;;;;;;;;;;5023798;28;20331;-67
2021/05/31 11:19:36;;;;;;;26.33;18.85;;;;;;;;;;5030529;28;20188;-68
2021/05/31 11:22:22;;;;;;;23.30;17.42;;;;;;;;;;5023297;28;21393;-68
2021/05/31 11:24:58;;;;;;;21.70;14.90;;;;;;;;;;5030475;28;20264;-68
2021/05/31 11:27:33;;;;;;;22.52;15.88;;;;;;;;;;5023200;28;20571;-68
2021/05/31 11:30:01;;;;;;;23.95;16.70;;;;;;;;;;5035462;28;20235;-67
2021/05/31 11:32:27;;;;;;;19.13;12.57;;;;;;;;;;5024471;28;20190;-67
2021/05/31 11:34:57;;;;;;;14.23;11.15;;;;;;;;;;5028679;28;20324;-68
2021/05/31 11:37:24;;;;;;;18.63;13.80;;;;;;;;;;5023388;28;20208;-67
2021/05/31 11:39:50;;;;;;;21.50;15.02;;;;;;;;;;5029972;28;20261;-67
2021/05/31 11:42:16;;;;;;;19.40;13.23;;;;;;;;;;5020030;28;20233;-69
2021/05/31 11:44:49;;;;;;;16.10;13.13;;;;;;;;;;5033618;28;20196;-67
2021/05/31 11:47:19;;;;;;;19.50;14.82;;;;;;;;;;5024732;28;20196;-67
2021/05/31 11:49:44;;;;;;;18.60;14.07;;;;;;;;;;5031141;28;20194;-67
2021/05/31 11:52:10;;;;;;;17.33;13.60;;;;;;;;;;5031251;28;20237;-67
2021/05/31 11:54:39;;;;;;;17.80;12.55;;;;;;;;;;5023786;28;20605;-67
2021/05/31 11:57:10;;;;;;;17.88;12.35;;;;;;;;;;5029266;28;20676;-67
2021/05/31 11:59:44;;;;;;;18.63;13.98;;;;;;;;;;5024051;28;20243;-67
2021/05/31 12:02:12;;;;;;;19.63;13.10;;;;;;;;;;5029825;28;20209;-67
2021/05/31 12:04:38;;;;;;;18.92;14.70;;;;;;;;;;5022285;28;20185;-68
2021/05/31 12:07:06;;;;;;;20.15;14.82;;;;;;;;;;5028487;28;20255;-67
2021/05/31 12:09:32;;;;;;;19.90;14.43;;;;;;;;;;5023845;28;20645;-67
2021/05/31 12:11:58;;;;;;;19.15;12.30;;;;;;;;;;5028730;28;20193;-67
2021/05/31 12:14:26;;;;;;;15.02;11.57;;;;;;;;;;5026267;28;20328;-68
2021/05/31 12:17:00;;;;;;;15.38;11.70;;;;;;;;;;5031416;28;20658;-67
2021/05/31 12:19:29;;;;;;;12.90;10.23;;;;;;;;;;5020695;28;20280;-67
2021/05/31 12:21:56;;;;;;;12.15;9.75;;;;;;;;;;5028845;28;20186;-67
2021/05/31 12:24:26;;;;;;;15.73;11.32;;;;;;;;;;5019157;28;20261;-68
2021/05/31 12:26:52;;;;;;;13.40;10.63;;;;;;;;;;5029374;28;20186;-67
2021/05/31 12:29:18;;;;;;;14.82;11.57;;;;;;;;;;5019799;28;20900;-68
2021/05/31 12:31:47;;;;;;;14.48;10.43;;;;;;;;;;5028230;28;20290;-68
2021/05/31 12:34:23;;;;;;;12.95;10.60;;;;;;;;;;5025097;28;20529;-67
2021/05/31 12:36:49;;;;;;;12.30;7.65;;;;;;;;;;5021542;28;20189;-67
2021/05/31 12:39:14;;;;;;;9.57;6.82;;;;;;;;;;5027120;28;20232;-67
2021/05/31 12:41:39;;;;;;;8.50;7.38;;;;;;;;;;5020505;28;20194;-67
2021/05/31 12:44:06;;;;;;;9.20;5.50;;;;;;;;;;5026164;28;20276;-67
2021/05/31 12:46:38;;;;;;;9.20;6.00;;;;;;;;;;5020592;28;20193;-68
2021/05/31 12:49:04;;;;;;;5.53;4.60;;;;;;;;;;5028754;28;20207;-67
2021/05/31 12:51:29;;;;;;;7.90;4.30;;;;;;;;;;5020677;28;20227;-67
2021/05/31 12:54:01;;;;;;;14.90;4.10;;;;;;;;;;5026761;28;20197;-68
2021/05/31 12:56:30;;;;;;;5.93;4.60;;;;;;;;;;5021761;28;20185;-68
2021/05/31 12:59:06;;;;;;;6.18;4.32;;;;;;;;;;5032086;28;20257;-68
2021/05/31 13:01:32;;;;;;;6.97;4.10;;;;;;;;;;5022607;28;20209;-68
2021/05/31 13:03:58;;;;;;;5.50;3.70;;;;;;;;;;5030981;28;20232;-68
2021/05/31 13:06:40;;;;;;;6.30;3.53;;;;;;;;;;5021780;28;20212;-68
2021/05/31 13:09:07;;;;;;;3.38;3.03;;;;;;;;;;5030594;28;20217;-68
2021/05/31 13:11:44;;;;;;;4.28;2.78;;;;;;;;;;5022373;28;20196;-68
2021/05/31 13:14:24;;;;;;;4.32;2.88;;;;;;;;;;5029686;28;20197;-68
2021/05/31 13:17:02;;;;;;;2.92;2.72;;;;;;;;;;5022463;28;20653;-68
2021/05/31 13:19:29;;;;;;;4.85;3.28;;;;;;;;;;5028767;28;20182;-68
2021/05/31 13:22:02;;;;;;;3.75;3.10;;;;;;;;;;5024625;28;20173;-67
2021/05/31 13:24:29;;;;;;;3.60;2.78;;;;;;;;;;5028704;28;20193;-67
2021/05/31 13:26:55;;;;;;;3.20;2.65;;;;;;;;;;5026604;28;20210;-68
2021/05/31 13:29:22;;;;;;;3.33;2.80;;;;;;;;;;5016659;28;20236;-68
2021/05/31 13:31:48;;;;;;;3.28;2.78;;;;;;;;;;5026165;28;20197;-68
2021/05/31 13:34:13;;;;;;;3.10;2.83;;;;;;;;;;5021123;28;20185;-68
2021/05/31 13:36:39;;;;;;;5.75;2.90;;;;;;;;;;5029390;28;20186;-65
2021/05/31 13:39:06;;;;;;;3.95;2.90;;;;;;;;;;5025829;28;20197;-68
2021/05/31 13:41:33;;;;;;;4.75;3.30;;;;;;;;;;5031028;28;20181;-68
2021/05/31 13:43:58;;;;;;;3.42;3.13;;;;;;;;;;5019762;28;20235;-68
2021/05/31 13:46:23;;;;;;;4.18;2.85;;;;;;;;;;5029352;28;20193;-68
2021/05/31 13:48:49;;;;;;;3.17;2.30;;;;;;;;;;5019049;28;20198;-68
2021/05/31 13:51:14;;;;;;;3.45;2.60;;;;;;;;;;5030433;28;20265;-66
2021/05/31 13:53:39;;;;;;;2.65;2.45;;;;;;;;;;5018479;28;20250;-67
2021/05/31 13:56:05;;;;;;;3.53;2.33;;;;;;;;;;5026354;28;20198;-66
2021/05/31 13:58:30;;;;;;;2.38;2.17;;;;;;;;;;5029908;28;20190;-66
2021/05/31 14:00:56;;;;;;;3.47;2.03;;;;;;;;;;5019783;28;20285;-65
2021/05/31 14:03:21;;;;;;;4.40;1.88;;;;;;;;;;5029444;28;20279;-66
2021/05/31 14:05:51;;;;;;;6.78;1.80;;;;;;;;;;5023007;28;20193;-67
2021/05/31 14:08:17;;;;;;;2.03;1.25;;;;;;;;;;5028677;28;20214;-66
2021/05/31 14:10:43;;;;;;;2.13;1.60;;;;;;;;;;5020817;28;20606;-66
2021/05/31 14:13:10;;;;;;;2.00;1.60;;;;;;;;;;5029183;28;20194;-66
2021/05/31 14:15:36;;;;;;;2.97;1.50;;;;;;;;;;5021740;28;20281;-66
2021/05/31 14:18:03;;;;;;;2.42;1.50;;;;;;;;;;5027176;28;20205;-68
2021/05/31 14:20:30;;;;;;;3.38;1.40;;;;;;;;;;5019737;28;20248;-69
2021/05/31 14:22:59;;;;;;;3.50;1.60;;;;;;;;;;5030265;28;20217;-67
2021/05/31 14:25:24;;;;;;;5.00;1.60;;;;;;;;;;5021979;28;20193;-68
2021/05/31 14:27:53;;;;;;;4.18;1.70;;;;;;;;;;5027051;28;20210;-67
2021/05/31 14:30:19;;;;;;;2.13;1.50;;;;;;;;;;5032303;28;20537;-67
2021/05/31 14:32:44;;;;;;;2.95;1.40;;;;;;;;;;5022922;28;20201;-67
2021/05/31 14:35:11;;;;;;;4.72;1.80;;;;;;;;;;5030890;28;20182;-67
2021/05/31 14:37:37;;;;;;;3.30;1.80;;;;;;;;;;5025349;28;20218;-67
2021/05/31 14:40:05;;;;;;;2.55;1.75;;;;;;;;;;5030963;28;20272;-68